Time;durP1;ratioP1;P1;durP2;ratioP2;P2;SDS_P1;SDS_P2;PMS_P1;PMS_P2;Temp;Humidity;BMP_temperature;BMP_pressure;BME280_temperature;BME280_humidity;BME280_pressure;Samples;Min_cycle;Max_cycle;Signal;HPM_P1;HPM_P2
2022/10/04 00:01:51;;;;;;;28.83;15.10;;;8.70;99.90;;;7.57;100.00;98093.75;5051501;28;20421;-72
2022/10/04 00:04:25;;;;;;;25.27;14.57;;;8.70;99.90;;;7.51;100.00;98086.72;5050893;28;20443;-72
2022/10/04 00:06:58;;;;;;;24.13;14.52;;;8.70;99.90;;;7.47;100.00;98082.88;5066633;28;20887;-72
2022/10/04 00:09:31;;;;;;;24.63;15.60;;;8.60;99.90;;;7.43;100.00;98084.34;5051032;28;20420;-71
2022/10/04 00:11:58;;;;;;;32.10;16.58;;;8.60;99.90;;;7.42;100.00;98084.53;5051323;28;20407;-71
2022/10/04 00:14:29;;;;;;;28.13;16.00;;;8.60;99.90;;;7.42;100.00;98082.72;5050642;28;20401;-71
2022/10/04 00:16:58;;;;;;;26.50;15.27;;;8.60;99.90;;;7.39;100.00;98083.13;5051059;28;20946;-72
2022/10/04 00:19:43;;;;;;;26.50;14.77;;;8.60;99.90;;;7.36;100.00;98083.56;5051020;28;20914;-71
2022/10/04 00:22:16;;;;;;;23.63;14.60;;;8.50;99.90;;;7.34;100.00;98078.50;5050988;28;20402;-72
2022/10/04 00:25:17;;;;;;;28.58;15.45;;;8.50;99.90;;;7.31;100.00;98081.56;5050661;28;20958;-71
2022/10/04 00:28:41;;;;;;;27.30;15.35;;;8.50;99.90;;;7.31;100.00;98073.66;5040328;28;20421;-72
2022/10/04 00:31:23;;;;;;;23.80;14.98;;;8.50;99.90;;;7.28;100.00;98075.94;5050867;28;20406;-71
2022/10/04 00:34:17;;;;;;;26.40;15.48;;;8.40;99.90;;;7.24;100.00;98074.72;5050321;28;20408;-71
2022/10/04 00:36:53;;;;;;;25.70;14.57;;;8.40;99.90;;;7.21;100.00;98077.81;5050611;28;20826;-71
2022/10/04 00:39:57;;;;;;;26.40;14.93;;;8.40;99.90;;;7.21;100.00;98075.16;5050156;28;20397;-71
2022/10/04 00:42:45;;;;;;;24.50;13.68;;;8.40;99.90;;;7.20;100.00;98074.34;4969366;28;20489;-71
2022/10/04 00:45:37;;;;;;;26.15;14.82;;;8.40;99.90;;;7.16;100.00;98064.44;5047740;28;20409;-71
2022/10/04 00:48:36;;;;;;;28.77;15.80;;;8.30;99.90;;;7.14;100.00;98064.66;5050704;28;20787;-71
2022/10/04 00:51:12;;;;;;;26.67;13.95;;;8.30;99.90;;;7.16;100.00;98054.72;5050599;28;20875;-72
2022/10/04 00:53:56;;;;;;;26.00;15.35;;;8.30;99.90;;;7.13;100.00;98055.16;5065577;28;20405;-71
2022/10/04 00:56:29;;;;;;;24.25;14.93;;;8.30;99.90;;;7.13;100.00;98054.34;5050568;28;20457;-71
2022/10/04 00:59:28;;;;;;;28.93;14.73;;;8.30;99.90;;;7.08;100.00;98049.72;5050430;28;20430;-71
2022/10/04 01:02:00;;;;;;;24.38;14.93;;;8.30;99.90;;;7.07;100.00;98057.84;5050489;28;20408;-71
2022/10/04 01:04:37;;;;;;;25.42;14.00;;;8.20;99.90;;;7.06;100.00;98053.59;5049998;28;20397;-71
2022/10/04 01:07:05;;;;;;;27.70;13.87;;;8.20;99.90;;;7.02;100.00;98060.28;5050467;28;20767;-71
2022/10/04 01:09:37;;;;;;;23.90;14.40;;;8.20;99.90;;;6.99;100.00;98058.91;5050182;28;20950;-72
2022/10/04 01:12:13;;;;;;;25.50;14.27;;;8.20;99.90;;;6.99;100.00;98058.91;5050405;28;20882;-71
2022/10/04 01:14:51;;;;;;;24.23;14.10;;;8.20;99.90;;;7.00;100.00;98049.97;5049979;28;20562;-71
2022/10/04 01:17:18;;;;;;;27.75;14.45;;;8.20;99.90;;;6.95;100.00;98055.88;5050329;28;20893;-71
2022/10/04 01:19:51;;;;;;;22.20;14.55;;;8.20;99.90;;;6.95;100.00;98055.06;5050219;28;20394;-70
2022/10/04 01:22:34;;;;;;;32.42;14.95;;;8.10;99.90;;;6.95;100.00;98055.88;5050272;28;20398;-71
2022/10/04 01:25:01;;;;;;;24.95;14.18;;;8.10;99.90;;;6.95;100.00;98055.06;5049933;28;20417;-71
2022/10/04 01:27:34;;;;;;;19.98;12.70;;;8.10;99.90;;;6.92;100.00;98053.66;5050267;28;20394;-70
2022/10/04 01:30:04;;;;;;;23.00;13.38;;;8.10;99.90;;;6.91;100.00;98046.78;5050095;28;20473;-71
2022/10/04 01:32:30;;;;;;;24.85;13.95;;;8.10;99.90;;;6.90;100.00;98044.38;5050135;28;20456;-71
2022/10/04 01:34:56;;;;;;;26.92;13.60;;;8.10;99.90;;;6.88;100.00;98034.06;5049772;28;20408;-71
2022/10/04 01:37:24;;;;;;;23.85;14.20;;;8.10;99.90;;;6.86;100.00;98035.25;5050153;28;20914;-70
2022/10/04 01:39:50;;;;;;;23.80;13.67;;;8.10;99.90;;;6.84;100.00;98030.22;5065513;28;21393;-70
2022/10/04 01:42:22;;;;;;;24.25;14.43;;;8.00;99.90;;;6.83;100.00;98027.81;5049972;28;20409;-70
2022/10/04 01:44:56;;;;;;;24.35;14.10;;;8.00;99.90;;;6.81;100.00;98016.69;5049781;28;20436;-71
2022/10/04 01:47:31;;;;;;;25.70;13.13;;;8.00;99.90;;;6.80;100.00;98015.88;5050124;28;20424;-71
2022/10/04 01:50:01;;;;;;;26.65;13.82;;;8.00;99.90;;;6.79;100.00;98014.25;5050137;28;20511;-71
2022/10/04 01:52:34;;;;;;;26.67;14.75;;;8.00;99.90;;;6.80;100.00;98015.88;5053802;28;20393;-71
2022/10/04 01:55:05;;;;;;;23.13;12.70;;;8.00;99.90;;;6.80;100.00;98015.06;5053519;28;20416;-71
2022/10/04 01:57:35;;;;;;;24.00;13.00;;;8.00;99.90;;;6.77;100.00;98004.94;5053674;28;20397;-71
2022/10/04 02:00:06;;;;;;;25.83;12.60;;;8.00;99.90;;;6.73;100.00;98009.84;5053779;28;20579;-71
2022/10/04 02:02:36;;;;;;;22.98;12.57;;;7.90;99.90;;;6.71;100.00;98005.81;5053499;28;20437;-70
2022/10/04 02:05:09;;;;;;;19.67;12.18;;;7.90;99.90;;;6.75;100.00;98002.56;5053448;28;20397;-71
2022/10/04 02:07:38;;;;;;;25.33;12.27;;;7.90;99.90;;;6.73;100.00;97995.88;5053684;28;20397;-70
2022/10/04 02:10:09;;;;;;;22.15;11.30;;;7.90;99.90;;;6.71;100.00;98000.53;5053321;28;20444;-71
2022/10/04 02:12:37;;;;;;;21.15;11.98;;;7.90;99.90;;;6.71;100.00;98001.34;5053405;28;20745;-71
2022/10/04 02:15:08;;;;;;;18.80;10.88;;;7.90;99.90;;;6.72;100.00;98005.59;5053208;28;20390;-71
2022/10/04 02:17:41;;;;;;;18.58;11.95;;;7.90;99.90;;;6.70;100.00;98010.25;5053449;28;20385;-71
2022/10/04 02:20:14;;;;;;;17.40;11.48;;;7.90;99.90;;;6.69;100.00;98013.13;5053316;28;20386;-70
2022/10/04 02:22:43;;;;;;;21.65;11.43;;;7.90;99.90;;;6.67;100.00;98010.69;5053027;28;20404;-70
2022/10/04 02:25:12;;;;;;;24.10;12.00;;;7.90;99.90;;;6.69;100.00;97998.13;5053204;28;20459;-70
2022/10/04 02:27:38;;;;;;;18.08;10.85;;;7.90;99.90;;;6.69;100.00;98007.84;5053127;28;20410;-70
2022/10/04 02:30:07;;;;;;;24.40;11.88;;;7.90;99.90;;;6.66;100.00;97998.56;5053120;28;20427;-70
2022/10/04 02:35:20;;;;;;;22.17;11.50;;;7.80;99.90;;;6.61;100.00;97991.28;5053125;28;20391;-71
2022/10/04 02:37:53;;;;;;;22.65;12.55;;;7.80;99.90;;;6.61;100.00;97980.75;5053059;28;20409;-71
2022/10/04 02:40:25;;;;;;;22.40;11.45;;;7.80;99.90;;;6.61;100.00;97990.50;5051642;28;20438;-70
2022/10/04 02:42:59;;;;;;;20.52;11.38;;;7.80;99.90;;;6.61;100.00;97993.91;5052543;28;20480;-71
2022/10/04 02:45:34;;;;;;;17.95;11.15;;;7.80;99.90;;;6.60;100.00;97986.25;5052957;28;20458;-70
2022/10/04 02:48:06;;;;;;;21.37;11.67;;;7.80;99.90;;;6.59;100.00;97989.91;5068272;28;20768;-69
2022/10/04 02:50:36;;;;;;;20.85;11.10;;;7.80;99.90;;;6.58;100.00;97983.00;5052594;28;20965;-70
2022/10/04 02:53:15;;;;;;;17.17;11.20;;;7.80;99.90;;;6.56;100.00;97977.97;5052235;28;20402;-70
2022/10/04 02:55:42;;;;;;;20.60;11.60;;;7.80;99.90;;;6.56;100.00;97987.66;5052701;28;20405;-70
2022/10/04 02:58:12;;;;;;;21.73;12.00;;;7.80;99.90;;;6.54;100.00;97987.88;5052769;28;20455;-71
2022/10/04 03:00:48;;;;;;;20.67;11.23;;;7.70;99.90;;;6.56;100.00;97987.66;5052397;28;20385;-70
2022/10/04 03:03:20;;;;;;;19.85;11.25;;;7.70;99.90;;;6.55;100.00;97980.78;5052055;28;20401;-71
2022/10/04 03:05:57;;;;;;;19.23;11.02;;;7.70;99.90;;;6.52;100.00;97974.16;5052540;28;20495;-70
2022/10/04 03:08:26;;;;;;;23.60;12.52;;;7.70;99.90;;;6.51;100.00;97977.78;5052445;28;20438;-70
2022/10/04 03:10:52;;;;;;;25.73;12.35;;;7.70;99.90;;;6.53;100.00;97973.13;5093814;22;20952;-70
2022/10/04 03:13:20;;;;;;;20.15;11.32;;;7.70;99.90;;;6.53;100.00;97972.31;5091674;28;20402;-71
2022/10/04 03:15:48;;;;;;;19.85;11.68;;;7.70;99.90;;;6.49;100.00;97976.38;5092532;28;20413;-71
2022/10/04 03:18:16;;;;;;;21.07;11.63;;;7.70;99.90;;;6.47;100.00;97975.78;5092562;28;20470;-70
2022/10/04 03:20:43;;;;;;;26.30;12.52;;;7.70;99.90;;;6.47;100.00;97978.41;5092313;28;20434;-70
2022/10/04 03:23:11;;;;;;;20.45;11.57;;;7.70;99.90;;;6.42;100.00;97968.53;5091971;28;20398;-71
2022/10/04 03:25:51;;;;;;;20.15;11.50;;;7.60;99.90;;;6.42;100.00;97968.53;5092244;28;20405;-71
2022/10/04 03:28:18;;;;;;;25.80;11.45;;;7.60;99.90;;;6.43;100.00;97962.25;5092293;28;20412;-71
2022/10/04 03:30:46;;;;;;;25.40;11.95;;;7.60;99.90;;;6.38;100.00;97969.97;5090828;28;20421;-71
2022/10/04 03:33:18;;;;;;;20.30;11.98;;;7.60;99.90;;;6.38;100.00;97972.59;5091715;28;20886;-71
2022/10/04 03:35:48;;;;;;;19.98;12.45;;;7.60;99.90;;;6.41;100.00;97968.72;5092098;28;20398;-70
2022/10/04 03:38:16;;;;;;;19.27;12.18;;;7.60;99.90;;;6.42;100.00;97958.00;5092144;28;20438;-71
2022/10/04 03:40:51;;;;;;;22.80;12.30;;;7.60;99.90;;;6.41;100.00;97956.41;5091995;28;20575;-71
2022/10/04 03:43:21;;;;;;;19.83;11.50;;;7.60;99.90;;;6.42;100.00;97962.47;5091552;28;20497;-71
2022/10/04 03:45:48;;;;;;;18.40;12.20;;;7.60;99.90;;;6.42;100.00;97965.09;5091905;28;20402;-71
2022/10/04 03:48:25;;;;;;;24.40;12.40;;;7.60;99.90;;;6.42;100.00;97962.47;5086170;28;20763;-70
2022/10/04 03:50:52;;;;;;;20.65;11.85;;;7.60;99.90;;;6.40;100.00;97962.66;5091126;28;20458;-71
2022/10/04 03:53:28;;;;;;;19.25;11.25;;;7.60;99.90;;;6.36;100.00;97961.47;5090624;28;20402;-70
2022/10/04 03:55:57;;;;;;;15.40;10.60;;;7.60;99.90;;;6.34;100.00;97953.00;5091253;28;20450;-72
2022/10/04 03:58:25;;;;;;;18.73;11.50;;;7.50;99.90;;;6.36;100.00;97958.03;5072419;28;20787;-72
2022/10/04 04:01:07;;;;;;;21.70;12.50;;;7.50;99.90;;;6.36;100.00;97958.84;5090997;28;20431;-72
2022/10/04 04:03:45;;;;;;;19.63;10.80;;;7.50;99.90;;;6.36;100.00;97953.59;5088015;28;20405;-72
2022/10/04 04:06:15;;;;;;;18.52;10.63;;;7.50;99.90;;;6.34;100.00;97957.44;5091047;28;20795;-71
2022/10/04 04:08:45;;;;;;;15.20;10.82;;;7.50;99.90;;;6.33;100.00;97955.81;5090971;28;20453;-72
2022/10/04 04:11:21;;;;;;;23.58;11.93;;;7.50;99.90;;;6.31;100.00;97953.44;5090591;28;20812;-70
2022/10/04 04:13:54;;;;;;;17.25;10.57;;;7.50;99.90;;;6.33;100.00;97955.81;5089175;28;20405;-72
2022/10/04 04:16:24;;;;;;;19.10;10.80;;;7.50;99.90;;;6.32;100.00;97957.66;5091308;28;20464;-72
2022/10/04 04:18:53;;;;;;;16.48;10.23;;;7.50;99.90;;;6.33;100.00;97964.53;5088000;28;20852;-74
2022/10/04 04:21:23;;;;;;;17.85;10.82;;;7.50;99.90;;;6.32;100.00;97959.47;5080067;28;20540;-74
2022/10/04 04:23:54;;;;;;;20.70;10.93;;;7.50;99.90;;;6.28;100.00;97953.03;5079344;28;20728;-74
2022/10/04 04:26:28;;;;;;;18.93;10.73;;;7.50;99.90;;;6.30;100.00;97957.06;5080173;28;20610;-74
2022/10/04 04:29:02;;;;;;;17.85;9.93;;;7.50;99.90;;;6.29;100.00;97965.16;5080989;28;20465;-71
2022/10/04 04:31:34;;;;;;;18.52;10.30;;;7.50;99.90;;;6.26;100.00;97953.22;5090813;28;20454;-72
2022/10/04 04:34:03;;;;;;;17.90;10.35;;;7.40;99.90;;;6.22;100.00;97941.53;5090446;28;20578;-72
2022/10/04 04:36:37;;;;;;;20.65;10.55;;;7.40;99.90;;;6.22;100.00;97949.41;5072767;28;20409;-72
2022/10/04 04:42:00;;;;;;;17.88;10.57;;;7.40;99.90;;;6.21;100.00;97940.72;5089659;28;20389;-71
2022/10/04 04:44:27;;;;;;;13.40;10.15;;;7.40;99.90;;;6.21;100.00;97939.91;5081045;28;20400;-71
2022/10/04 04:46:59;;;;;;;18.65;10.55;;;7.40;99.90;;;6.20;100.00;97933.03;5080147;28;20503;-71
2022/10/04 04:49:28;;;;;;;15.20;10.07;;;7.40;99.90;;;6.18;100.00;97932.44;5070401;28;20883;-72
2022/10/04 04:51:56;;;;;;;15.60;10.53;;;7.40;99.90;;;6.17;100.00;97942.16;5070527;28;20440;-72
2022/10/04 04:54:26;;;;;;;13.70;9.30;;;7.40;99.90;;;6.18;100.00;97946.38;5070017;28;20721;-72
2022/10/04 04:56:54;;;;;;;25.10;10.98;;;7.40;99.90;;;6.17;100.00;97946.59;5069169;28;20403;-72
2022/10/04 04:59:23;;;;;;;16.10;9.57;;;7.40;99.90;;;6.16;100.00;97963.41;5070411;28;20448;-72
2022/10/04 05:01:49;;;;;;;14.87;9.37;;;7.30;99.90;;;6.13;100.00;97975.13;5077523;28;20426;-72
2022/10/04 05:04:20;;;;;;;20.27;10.43;;;7.30;99.90;;;6.11;100.00;97971.91;5081184;28;20425;-73
2022/10/04 05:06:57;;;;;;;19.77;10.60;;;7.30;99.90;;;6.11;100.00;97981.59;5090445;28;20455;-72
2022/10/04 05:09:26;;;;;;;17.58;10.32;;;7.30;99.90;;;6.09;100.00;97976.53;5090021;28;20783;-72
2022/10/04 05:11:56;;;;;;;15.68;9.90;;;7.30;99.90;;;6.09;100.00;97981.03;5090476;28;20397;-72
2022/10/04 05:14:24;;;;;;;18.30;10.25;;;7.30;99.90;;;6.11;100.00;97977.16;5089910;28;20608;-71
2022/10/04 05:16:53;;;;;;;20.33;9.77;;;7.30;99.90;;;6.16;100.00;97982.59;5087865;28;20452;-71
2022/10/04 05:19:23;;;;;;;14.93;8.82;;;7.30;99.90;;;6.08;100.00;97982.03;5086213;28;20978;-71
2022/10/04 05:21:53;;;;;;;15.30;9.18;;;7.30;99.90;;;6.07;100.00;97978.59;5079524;28;20446;-72
2022/10/04 05:24:25;;;;;;;17.80;8.77;;;7.20;99.90;;;6.08;100.00;97982.03;5090529;28;20437;-72
2022/10/04 05:26:55;;;;;;;14.27;8.45;;;7.30;99.90;;;6.10;100.00;97983.41;5090428;28;20446;-72
2022/10/04 05:29:26;;;;;;;22.73;9.18;;;7.30;99.90;;;6.15;100.00;97985.44;5090274;28;20819;-72
2022/10/04 05:32:03;;;;;;;14.57;8.38;;;7.30;99.90;;;6.14;100.00;97983.81;5091224;28;20397;-72
2022/10/04 05:34:37;;;;;;;14.52;9.00;;;7.30;99.90;;;6.16;100.00;97990.47;5087637;28;20447;-72
2022/10/04 05:37:24;;;;;;;13.20;8.85;;;7.30;99.90;;;6.18;100.00;97995.53;5085066;28;20453;-72
2022/10/04 05:40:03;;;;;;;14.43;9.35;;;7.40;99.90;;;6.20;100.00;97998.75;5085731;28;20457;-71
2022/10/04 05:42:37;;;;;;;13.50;8.95;;;7.40;99.90;;;6.19;100.00;97992.69;5087722;28;20944;-71
2022/10/04 05:45:16;;;;;;;14.70;8.50;;;7.40;99.90;;;6.21;100.00;97992.50;5087523;28;20930;-72
2022/10/04 05:47:44;;;;;;;12.82;8.70;;;7.40;99.90;;;6.20;100.00;97983.78;5084889;28;20415;-72
2022/10/04 05:50:19;;;;;;;15.88;8.88;;;7.40;99.90;;;6.22;100.00;97979.16;5085526;28;20413;-72
2022/10/04 05:52:49;;;;;;;13.20;8.95;;;7.40;99.90;;;6.24;100.00;97976.28;5086825;28;20447;-72
2022/10/04 05:55:27;;;;;;;15.18;9.27;;;7.40;99.90;;;6.26;100.00;97979.53;5084434;28;20455;-72
2022/10/04 05:58:38;;;;;;;13.25;8.18;;;7.40;99.90;;;6.29;100.00;97973.03;5086333;28;20431;-72
2022/10/04 06:01:22;;;;;;;14.15;8.43;;;7.50;99.90;;;6.33;100.00;97968.97;5082163;28;20409;-71
2022/10/04 06:04:39;;;;;;;13.80;8.48;;;7.50;99.90;;;6.37;100.00;97986.75;5085966;28;20680;-73
2022/10/04 06:07:19;;;;;;;18.63;8.65;;;7.50;99.90;;;6.39;100.00;97983.94;5029315;28;20556;-74
2022/10/04 06:10:24;;;;;;;14.15;8.93;;;7.50;99.90;;;6.41;100.00;97982.69;5024375;28;20509;-74
2022/10/04 06:12:57;;;;;;;16.90;9.43;;;7.50;99.90;;;6.39;100.00;97979.44;5076213;28;20398;-73
2022/10/04 06:16:07;;;;;;;14.80;8.87;;;7.50;99.90;;;6.43;100.00;97979.84;5092915;28;20425;-74
2022/10/04 06:19:12;;;;;;;14.48;8.70;;;7.60;99.90;;;6.47;100.00;97976.59;5088767;28;20489;-74
2022/10/04 06:21:55;;;;;;;16.50;9.32;;;7.60;99.90;;;6.52;100.00;97976.78;5091673;28;20390;-74
2022/10/04 06:24:25;;;;;;;16.98;9.50;;;7.60;99.90;;;6.59;100.00;97979.38;5091357;28;20506;-74
2022/10/04 06:26:58;;;;;;;21.10;10.45;;;7.70;99.90;;;6.61;100.00;97977.34;5090670;28;20765;-76
2022/10/04 06:29:28;;;;;;;18.63;10.30;;;7.70;99.90;;;6.65;100.00;97973.25;5092659;28;20435;-78
2022/10/04 06:32:25;;;;;;;15.68;9.30;;;7.80;99.90;;;6.69;100.00;97984.97;5092859;28;20390;-80
2022/10/04 06:35:37;;;;;;;17.00;9.13;;;7.80;99.90;;;6.76;100.00;97984.94;5074799;28;20409;-81
2022/10/04 06:38:45;;;;;;;15.57;8.65;;;7.80;99.90;;;6.82;100.00;97981.47;5067520;28;20409;-83
2022/10/04 06:41:41;;;;;;;16.25;8.38;;;7.90;99.90;;;6.90;100.00;97987.28;5090167;28;20390;-78
2022/10/04 06:44:50;;;;;;;13.43;8.32;;;8.00;99.90;;;7.00;100.00;97984.97;5091710;28;20394;-75
2022/10/04 06:47:40;;;;;;;14.65;8.88;;;8.10;99.90;;;7.08;100.00;97975.19;5090971;28;20394;-76
2022/10/04 06:50:25;;;;;;;16.10;8.23;;;8.10;99.90;;;7.17;100.00;97981.81;5092058;28;20433;-78
2022/10/04 06:53:15;;;;;;;16.60;8.35;;;8.20;99.90;;;7.24;100.00;97975.47;5089746;28;20398;-74
2022/10/04 06:56:13;;;;;;;18.95;8.30;;;8.30;99.90;;;7.34;100.00;97981.06;5091360;28;20386;-74
2022/10/04 06:59:41;;;;;;;19.08;9.88;;;8.40;99.90;;;7.43;100.00;97978.16;5091145;28;20394;-74
2022/10/04 07:02:18;;;;;;;14.93;8.53;;;8.40;99.90;;;7.53;100.00;97981.09;5027790;28;20509;-73
2022/10/04 07:04:50;;;;;;;18.25;9.23;;;8.60;99.90;;;7.57;100.00;97984.94;5073009;28;20438;-74
2022/10/04 07:07:35;;;;;;;14.70;9.10;;;8.60;99.90;;;7.64;100.00;97981.22;5083759;28;20417;-74
2022/10/04 07:10:29;;;;;;;18.60;9.68;;;8.70;99.90;;;7.74;100.00;97988.63;5087320;28;20410;-75
2022/10/04 07:13:21;;;;;;;18.88;10.13;;;8.70;99.90;;;7.78;100.00;97980.06;5088313;28;20448;-73
2022/10/04 07:15:53;;;;;;;20.63;9.77;;;8.80;99.90;;;7.85;100.00;97982.63;5091483;28;20405;-80
2022/10/04 07:18:24;;;;;;;15.38;9.10;;;8.90;99.90;;;7.92;100.00;97982.53;5092087;28;20397;-82
2022/10/04 07:20:58;;;;;;;18.85;10.30;;;8.90;99.90;;;7.98;100.00;97981.66;5081970;28;20914;-80
2022/10/04 07:23:31;;;;;;;19.08;9.65;;;9.00;99.90;;;8.03;100.00;97987.09;5089287;28;20492;-79
2022/10/04 07:26:04;;;;;;;15.00;9.53;;;9.00;99.90;;;8.07;100.00;97989.06;5082344;28;20476;-78
2022/10/04 07:31:27;;;;;;;16.30;9.38;;;9.10;99.90;;;8.16;100.00;97985.13;5083417;28;20419;-85
2022/10/04 07:33:57;;;;;;;16.13;9.88;;;9.20;99.90;;;8.21;100.00;97994.19;5082239;28;20408;-91
2022/10/04 07:36:29;;;;;;;16.23;9.65;;;9.20;99.90;;;8.27;100.00;98004.66;5086732;28;20414;-78
2022/10/04 07:39:03;;;;;;;16.85;9.50;;;9.30;99.90;;;8.32;100.00;98010.13;5083600;28;20410;-89
2022/10/04 07:41:35;;;;;;;18.40;9.32;;;9.30;99.90;;;8.38;100.00;98009.22;5064744;28;20783;-84
2022/10/04 07:44:14;;;;;;;14.45;8.48;;;9.40;99.90;;;8.44;100.00;98018.09;5082986;28;20418;-89
2022/10/04 07:46:49;;;;;;;16.58;8.57;;;9.40;99.90;;;8.50;100.00;98015.34;5085007;28;20394;-87
2022/10/04 07:49:18;;;;;;;13.02;8.00;;;9.50;99.90;;;8.56;100.00;98026.88;5082122;28;20836;-87
2022/10/04 07:52:19;;;;;;;13.77;8.07;;;9.50;99.90;;;8.61;100.00;98028.84;5082481;28;20418;-87
2022/10/04 07:54:56;;;;;;;13.67;8.80;;;9.60;99.90;;;8.67;100.00;98028.75;5083797;28;20420;-86
2022/10/04 07:57:38;;;;;;;15.13;8.38;;;9.60;99.90;;;8.76;100.00;98034.53;5083997;28;21003;-84
2022/10/04 08:00:11;;;;;;;18.33;9.63;;;9.70;99.90;;;8.82;100.00;98033.63;5079684;28;20418;-86
2022/10/04 08:02:52;;;;;;;18.05;9.45;;;9.80;99.90;;;8.96;100.00;98037.69;5083302;28;20940;-86
2022/10/04 08:05:24;;;;;;;18.73;10.35;;;9.90;99.90;;;8.91;100.00;98030.47;5089239;28;20533;-81
2022/10/04 08:08:19;;;;;;;20.13;10.75;;;9.90;99.90;;;8.97;100.00;98020.03;5088334;28;20417;-82
2022/10/04 08:11:00;;;;;;;24.55;11.40;;;9.90;99.90;;;8.96;100.00;98024.50;5088380;28;20493;-75
2022/10/04 08:13:37;;;;;;;18.40;11.20;;;9.90;99.90;;;9.02;100.00;98014.91;5089494;28;20484;-75
2022/10/04 08:16:22;;;;;;;22.27;12.05;;;10.00;99.90;;;9.11;100.00;98010.88;5089139;28;20574;-80
2022/10/04 08:19:06;;;;;;;21.73;11.50;;;10.00;99.90;;;9.17;100.00;98013.41;5073194;28;20461;-79
2022/10/04 08:21:44;;;;;;;16.42;11.07;;;10.10;99.90;;;9.24;100.00;98014.16;5071169;28;20404;-80
2022/10/04 08:24:20;;;;;;;18.60;10.57;;;10.20;99.90;;;9.31;100.00;98008.75;5071058;28;20422;-84
2022/10/04 08:27:00;;;;;;;14.63;9.30;;;10.20;99.90;;;9.36;100.00;98006.22;5071955;28;20414;-78
2022/10/04 08:29:56;;;;;;;16.83;9.00;;;10.30;99.90;;;9.35;100.00;97999.34;5071152;28;20947;-75
2022/10/04 08:32:44;;;;;;;17.83;7.95;;;10.30;99.90;;;9.31;100.00;97995.56;5085968;28;20848;-89
2022/10/04 08:35:34;;;;;;;17.80;8.13;;;10.30;99.90;;;9.41;100.00;97979.91;5067617;28;20410;-90
2022/10/04 08:38:34;;;;;;;13.20;7.82;;;10.30;99.90;;;9.51;100.00;97988.09;5087684;28;20418;-80
2022/10/04 08:41:53;;;;;;;14.70;7.45;;;10.40;99.90;;;9.62;100.00;97994.44;5081170;28;20477;-78
2022/10/04 08:45:19;;;;;;;12.73;7.30;;;10.60;99.90;;;9.76;100.00;97990.53;5069877;28;20442;-80
2022/10/04 08:48:23;;;;;;;11.05;6.65;;;10.70;99.90;;;9.94;100.00;97990.38;5081343;28;20544;-80
2022/10/04 08:51:37;;;;;;;13.25;7.00;;;10.80;99.90;;;10.07;100.00;98006.00;5038522;28;20430;-80
2022/10/04 08:54:44;;;;;;;10.52;6.32;;;10.90;99.90;;;10.15;100.00;98010.13;5072094;28;20885;-83
2022/10/04 08:58:08;;;;;;;14.88;6.30;;;11.10;99.90;;;10.22;100.00;98013.50;5075933;28;20410;-80
2022/10/04 09:01:10;;;;;;;12.10;6.25;;;11.10;99.90;;;10.30;100.00;98020.28;5064463;28;20443;-79
2022/10/04 09:04:28;;;;;;;15.00;6.05;;;11.20;99.90;;;10.42;100.00;98016.56;5075394;28;20403;-78
2022/10/04 09:07:07;;;;;;;12.02;6.13;;;11.30;99.90;;;10.55;100.00;98027.91;5072756;28;20432;-79
2022/10/04 09:10:02;;;;;;;11.52;5.97;;;11.40;99.90;;;10.58;100.00;98024.78;5090199;28;20496;-76
2022/10/04 09:12:59;;;;;;;11.48;6.05;;;11.40;99.90;;;10.62;100.00;98023.28;5069590;28;20477;-85
2022/10/04 09:15:52;;;;;;;13.38;6.00;;;11.50;99.90;;;10.52;100.00;98018.59;5083790;28;20406;-86
2022/10/04 09:18:44;;;;;;;12.30;5.83;;;11.30;99.90;;;10.56;100.00;98027.66;5083529;28;20394;-82
2022/10/04 09:21:21;;;;;;;10.15;5.40;;;11.40;99.90;;;10.51;100.00;98026.78;5089824;28;20437;-84
2022/10/04 09:24:43;;;;;;;14.18;6.05;;;11.50;99.90;;;10.72;100.00;98019.00;5089497;28;20402;-80
2022/10/04 09:27:35;;;;;;;12.63;5.22;;;11.60;99.90;;;10.72;100.00;98026.94;5082163;28;20404;-76
2022/10/04 09:30:15;;;;;;;13.88;6.10;;;11.60;99.90;;;10.99;100.00;98019.22;5088609;28;20421;-78
2022/10/04 09:33:16;;;;;;;9.88;5.55;;;11.80;99.90;;;10.93;100.00;98008.75;5083016;28;20893;-80
2022/10/04 09:36:28;;;;;;;13.68;6.15;;;11.80;99.90;;;11.18;100.00;98006.56;5064952;28;20539;-86
2022/10/04 09:39:36;;;;;;;11.80;5.50;;;12.00;99.90;;;11.26;100.00;98003.53;5052123;28;20395;-79
2022/10/04 09:42:39;;;;;;;13.25;5.97;;;12.10;99.90;;;11.37;100.00;97994.69;5090983;22;20521;-76
2022/10/04 09:45:35;;;;;;;17.50;5.60;;;12.30;99.90;;;11.51;100.00;97997.81;5057532;28;20810;-77
2022/10/04 09:48:24;;;;;;;12.52;5.35;;;12.40;99.90;;;11.43;100.00;97999.00;5082827;28;20404;-75
2022/10/04 09:51:30;;;;;;;15.43;5.65;;;12.30;99.90;;;11.37;100.00;97999.97;5087177;28;20407;-79
2022/10/04 09:54:25;;;;;;;11.98;5.10;;;12.30;99.90;;;11.58;100.00;98001.09;5071078;28;20407;-86
2022/10/04 09:57:26;;;;;;;16.17;5.95;;;12.40;99.90;;;11.72;100.00;97993.63;5084286;28;20413;-83
2022/10/04 10:00:08;;;;;;;14.35;5.55;;;12.50;99.90;;;11.89;100.00;97994.41;5092242;28;20413;-81
2022/10/04 10:03:11;;;;;;;11.82;5.40;;;12.70;99.90;;;12.18;100.00;97995.88;5077118;28;20410;-80
2022/10/04 10:06:30;;;;;;;12.77;4.88;;;12.90;99.90;;;12.26;100.00;97994.66;5074634;28;20893;-78
2022/10/04 10:09:18;;;;;;;11.48;5.32;;;13.00;99.90;;;12.21;100.00;97994.59;5080454;28;20414;-79
2022/10/04 10:15:18;;;;;;;8.85;4.38;;;13.10;99.90;;;12.31;100.00;97990.22;5088638;28;20823;-78
2022/10/04 10:17:55;;;;;;;11.50;5.07;;;13.10;99.90;;;12.44;100.00;97985.56;5039156;28;20415;-77
2022/10/04 10:20:45;;;;;;;9.98;4.35;;;13.20;99.90;;;12.43;100.00;97990.09;5073106;28;20404;-77
2022/10/04 10:23:37;;;;;;;8.63;4.45;;;13.20;99.90;;;12.51;100.00;97996.81;5079330;28;20917;-77
2022/10/04 10:26:31;;;;;;;7.88;4.40;;;13.30;99.90;;;12.56;100.00;98007.47;5073204;28;20407;-77
2022/10/04 10:29:37;;;;;;;7.60;3.88;;;13.30;99.90;;;12.66;100.00;97994.31;5081308;28;20454;-77
2022/10/04 10:32:33;;;;;;;8.13;4.05;;;13.40;99.90;;;12.78;100.00;98000.28;5085681;28;20500;-77
2022/10/04 10:35:41;;;;;;;8.95;4.18;;;13.50;99.90;;;12.95;100.00;97995.69;5072074;28;20419;-76
2022/10/04 10:38:32;;;;;;;10.68;4.80;;;13.70;99.90;;;12.91;100.00;97999.91;5078138;28;20419;-86
2022/10/04 10:41:29;;;;;;;11.93;4.63;;;13.80;99.90;;;13.08;100.00;97992.63;5077618;28;20406;-78
2022/10/04 10:44:12;;;;;;;7.60;4.47;;;13.80;99.90;;;13.11;100.00;97988.66;5081669;28;20413;-76
2022/10/04 10:47:12;;;;;;;7.25;4.03;;;13.90;99.90;;;13.18;100.00;97997.28;5082376;28;20471;-77
2022/10/04 10:50:06;;;;;;;11.85;4.07;;;14.00;99.90;;;13.21;100.00;97985.34;5066908;28;20854;-76
2022/10/04 10:53:14;;;;;;;23.75;5.47;;;14.00;99.90;;;13.23;100.00;97984.00;5072496;28;20404;-77
2022/10/04 10:56:38;;;;;;;8.57;4.30;;;14.10;99.90;;;13.29;100.00;97983.03;5085983;28;20409;-77
2022/10/04 10:59:59;;;;;;;10.45;4.15;;;14.10;99.90;;;13.36;100.00;97980.16;5045430;28;21101;-77
2022/10/04 11:03:20;;;;;;;6.60;3.55;;;14.10;99.90;;;13.53;100.00;97986.13;5079295;28;20426;-82
2022/10/04 11:06:24;;;;;;;5.85;3.95;;;14.20;99.90;;;13.60;100.00;97976.06;5081241;28;20394;-77
2022/10/04 11:09:34;;;;;;;10.48;3.92;;;14.30;99.90;;;13.64;100.00;97968.38;5070465;28;20398;-76
2022/10/04 11:13:00;;;;;;;15.90;4.60;;;14.30;99.90;;;13.70;100.00;97967.34;5077837;28;20418;-77
2022/10/04 11:16:18;;;;;;;16.00;5.25;;;14.40;99.90;;;13.80;100.00;97972.75;5003985;28;20429;-77
2022/10/04 11:19:46;;;;;;;8.18;3.70;;;14.50;99.90;;;14.01;100.00;97973.66;5079051;28;20444;-78
2022/10/04 11:23:00;;;;;;;6.63;3.63;;;14.60;99.90;;;13.99;98.03;97967.78;5073192;28;20444;-77
2022/10/04 11:26:23;;;;;;;11.35;4.40;;;14.80;99.90;;;14.28;94.90;97967.13;5080424;28;20415;-76
2022/10/04 11:29:09;;;;;;;7.72;4.13;;;14.90;99.90;;;14.67;93.62;97958.75;5088205;28;20409;-77